Centerville, Utah
Current Conditions -  °F | °C
As of 11:53 AM on Sunday 23 Nov 2014 (Local Time) from KSLC Reporting Station
Broken Clouds Broken Clouds  
Wind Chill: 29°   Ceiling: 4800
Heat Index: 37°   Visibility: 10mi
Dew Point: 24°   Wind: 12mph
Humidity: 59%   Direction: 320°NW
Pressure: 30.24"   Gusts: NA
Location:  40.92°N, 111.87°W
Report Text: KSLC 231853Z 32010KT 10SM SCT038 BKN048 03/M04 A3024 RMK AO2 SLP243 T00281044
Loading
Personal Weather Stations






























Interactive Weather Map New forecast layout! Learn more

10-Day Weather Forecast

Advertisements
Track Severe Weather on mobile